Impacts TAF Board INFO
FOR SITUATIONAL AWARENESS. NOT TO BE USED FOR FLIGHT PLANNING PURPOSES.
IDs:

KCLT - Charlotte/Douglas In, NC, US

Issued at 1941 UTC 25 Feb 2017
Updated at 2045 UTC 25 Feb 2017
Potential Impact None Slight Moderate High
Time1952Z 25/21Z 25/22Z 25/23Z 26/00Z 26/01Z 26/02Z 26/03Z 26/04Z 26/05Z 26/06Z 26/07Z 26/08Z 26/09Z
Type OBS PRVL PRVL PRVL PRVL PRVL PRVL PRVL PRVL PRVL PRVL PRVL PRVL PRVL
VIS 10 >6 >6 >6 >6 >6 >6 >6 >6 >6 >6 >6 >6 >6
CIG -- -- -- -- -- -- -- -- -- -- -- -- -- --
Cover FEW SKC SKC SKC SKC SKC SKC SKC SKC SKC SKC SKC SKC SKC
FltCat VFR VFR VFR VFR VFR VFR VFR VFR VFR VFR VFR VFR VFR VFR
WX -- -- -- -- -- -- -- -- -- -- -- -- -- --
WDir 240 230 290 290 290 310 310 310 310 310 310 310 310 310
WSpd 23 15 9 9 9 5 5 5 5 5 5 5 5 5
WGst 32 31 21 21 21 -- -- -- -- -- -- -- -- --

Raw TAF
KCLT 251941Z 2520/2618 23015G31KT P6SM SKC
  FM252200 29009G21KT P6SM SKC
  FM260100 31005KT P6SM SKC


Raw METAR
KCLT 251952Z 24023G32KT 10SM FEW070 FEW250 25/M02 A2962 RMK AO2 PK WND 22040/1939 SLP023 T02501017
KCLT 251852Z 24017G26KT 10SM SCT070 SCT250 26/06 A2963 RMK AO2 PK WND 22030/1802 SLP026 T02560056
KCLT 251752Z 22017G25KT 10SM SCT050 BKN060 BKN250 24/11 A2966 RMK AO2 PK WND 25026/1733 SLP038 T02440106 10244 20156 58013

METAR Board
Radar Display
Forecast Discussion

FOR SITUATIONAL AWARENESS. NOT TO BE USED FOR FLIGHT PLANNING PURPOSES.

Page loaded:  20:45 UTC  |   12:45 PM Pacific  |   01:45 PM Mountain  |   02:45 PM Central  |   03:45 PM Eastern

 

ADVISORIES

FORECASTS

FORECASTS

OBSERVATIONS

USER TOOLS

ABOUT US